Time;durP1;ratioP1;P1;durP2;ratioP2;P2;SDS_P1;SDS_P2;PMS_P1;PMS_P2;Temp;Humidity;BMP_temperature;BMP_pressure;BME280_temperature;BME280_humidity;BME280_pressure;Samples;Min_cycle;Max_cycle;Signal;HPM_P1;HPM_P2
2024/03/12 00:01:10;;;;;;;1.00;0.90;;;;;;;8.36;70.38;92133.19;2071351;69;20170;-74
2024/03/12 00:03:38;;;;;;;1.67;0.90;;;;;;;8.30;70.63;92139.16;2071500;69;20155;-74
2024/03/12 00:06:05;;;;;;;1.42;1.00;;;;;;;8.24;69.45;92146.47;2068161;69;20120;-74
2024/03/12 00:08:31;;;;;;;1.30;1.00;;;;;;;8.29;70.10;92145.38;2071362;69;20215;-74
2024/03/12 00:10:57;;;;;;;4.57;1.20;;;;;;;8.36;70.07;92144.41;2071370;69;20642;-74
2024/03/12 00:13:23;;;;;;;2.47;0.93;;;;;;;8.21;70.66;92142.09;2071367;69;20164;-73
2024/03/12 00:15:49;;;;;;;1.30;0.88;;;;;;;8.22;70.46;92143.56;2071434;69;20239;-75
2024/03/12 00:18:15;;;;;;;1.50;0.98;;;;;;;7.99;70.57;92147.06;2071410;69;20592;-74
2024/03/12 00:20:41;;;;;;;2.75;1.60;;;;;;;7.91;71.85;92150.09;2071413;69;20150;-76
2024/03/12 00:23:07;;;;;;;2.40;1.00;;;;;;;7.95;70.74;92135.63;2071342;69;20588;-74
2024/03/12 00:25:33;;;;;;;1.42;1.00;;;;;;;8.20;70.60;92155.38;2068063;69;20263;-74
2024/03/12 00:28:00;;;;;;;2.53;1.10;;;;;;;8.14;70.66;92147.31;2068108;69;20491;-74
2024/03/12 00:30:28;;;;;;;2.15;1.10;;;;;;;8.20;70.87;92158.19;2071469;69;20192;-74
2024/03/12 00:32:57;;;;;;;2.35;1.02;;;;;;;8.21;71.06;92165.25;2071305;69;20140;-74
2024/03/12 00:35:25;;;;;;;2.40;1.00;;;;;;;8.19;70.56;92159.50;2071425;69;20239;-74
2024/03/12 00:37:51;;;;;;;2.55;1.27;;;;;;;8.33;70.35;92176.47;2071207;69;20250;-74
2024/03/12 00:40:20;;;;;;;2.97;1.00;;;;;;;8.39;68.53;92163.59;2068043;69;20231;-74
2024/03/12 00:42:47;;;;;;;2.05;1.00;;;;;;;8.21;70.41;92179.28;2068029;69;20237;-74
2024/03/12 00:45:13;;;;;;;2.75;1.25;;;;;;;8.08;70.56;92174.25;2071517;69;20285;-74
2024/03/12 00:47:42;;;;;;;2.30;1.10;;;;;;;8.08;70.97;92169.38;2071065;69;20600;-74
2024/03/12 00:50:11;;;;;;;1.30;0.80;;;;;;;8.09;70.74;92176.44;2071359;69;20164;-75
2024/03/12 00:52:41;;;;;;;1.50;1.00;;;;;;;7.91;70.96;92175.31;2067936;69;20236;-75
2024/03/12 00:55:16;;;;;;;1.90;1.10;;;;;;;7.89;71.15;92175.94;2071675;69;20231;-74
2024/03/12 00:57:42;;;;;;;2.60;1.20;;;;;;;7.80;71.20;92173.97;2067998;69;20620;-74
2024/03/12 01:00:19;;;;;;;1.60;1.10;;;;;;;7.76;71.73;92176.53;2071610;69;20156;-75
2024/03/12 01:02:49;;;;;;;1.85;1.02;;;;;;;7.66;71.75;92177.97;2071378;69;20145;-74
2024/03/12 01:05:25;;;;;;;1.55;0.90;;;;;;;7.56;70.34;92178.03;2071584;69;20149;-74
2024/03/12 01:07:57;;;;;;;1.60;1.17;;;;;;;7.53;70.51;92177.19;2068240;69;20612;-74
2024/03/12 01:10:23;;;;;;;1.23;0.90;;;;;;;7.39;70.52;92191.03;2071317;69;20626;-73
2024/03/12 01:12:51;;;;;;;1.35;0.88;;;;;;;7.39;70.68;92185.44;2071331;69;20140;-74
2024/03/12 01:15:18;;;;;;;1.48;0.88;;;;;;;7.16;70.81;92188.13;2071531;69;20234;-74
2024/03/12 01:17:50;;;;;;;2.20;0.90;;;;;;;7.08;71.07;92190.41;2067880;69;20176;-74
2024/03/12 01:20:20;;;;;;;2.03;1.00;;;;;;;6.97;72.45;92202.28;2071608;69;20207;-74
2024/03/12 01:22:52;;;;;;;4.63;1.02;;;;;;;6.97;71.15;92200.22;2068144;69;20148;-74
2024/03/12 01:25:21;;;;;;;2.93;0.90;;;;;;;6.86;70.71;92195.25;2071585;69;20137;-74
2024/03/12 01:27:47;;;;;;;1.45;0.95;;;;;;;7.02;70.66;92204.72;2071550;69;20159;-74
2024/03/12 01:30:16;;;;;;;1.45;0.90;;;;;;;6.99;71.20;92202.41;2071509;69;20156;-74
2024/03/12 01:32:44;;;;;;;1.88;0.90;;;;;;;7.10;71.16;92204.50;2071274;69;20156;-74
2024/03/12 01:35:13;;;;;;;2.58;1.00;;;;;;;7.10;71.57;92210.88;2071309;69;20162;-74
2024/03/12 01:37:43;;;;;;;1.15;0.80;;;;;;;6.96;72.71;92209.19;2071421;69;20231;-75
2024/03/12 01:40:19;;;;;;;1.25;1.10;;;;;;;7.11;72.43;92209.53;2068132;69;20148;-75
2024/03/12 01:42:49;;;;;;;1.95;1.40;;;;;;;7.14;72.17;92210.38;2071492;69;20147;-74
2024/03/12 01:45:22;;;;;;;2.75;1.10;;;;;;;7.22;71.79;92212.97;2071355;69;20132;-74
2024/03/12 01:47:49;;;;;;;1.05;0.93;;;;;;;7.04;71.85;92202.06;2071414;69;20236;-74
2024/03/12 01:50:17;;;;;;;4.25;1.20;;;;;;;7.14;72.21;92216.69;2071471;69;20146;-75
2024/03/12 01:52:43;;;;;;;3.53;1.15;;;;;;;7.18;71.55;92212.72;2071119;69;20179;-75
2024/03/12 01:55:11;;;;;;;1.73;1.10;;;;;;;7.17;71.94;92205.66;2071559;69;20152;-75
2024/03/12 01:57:45;;;;;;;3.90;1.10;;;;;;;7.22;71.86;92212.97;2067931;69;20233;-74
2024/03/12 02:00:13;;;;;;;1.48;0.80;;;;;;;7.20;72.14;92198.88;2071578;69;20141;-74
2024/03/12 02:02:43;;;;;;;1.08;0.85;;;;;;;7.24;70.56;92213.09;2071323;69;20231;-74
2024/03/12 02:05:12;;;;;;;1.80;1.08;;;;;;;7.28;72.00;92207.75;2071275;69;20594;-74
2024/03/12 02:07:45;;;;;;;1.58;1.00;;;;;;;7.06;71.01;92191.00;2071389;69;20227;-74
2024/03/12 02:10:13;;;;;;;1.40;1.00;;;;;;;7.25;71.11;92209.00;2071311;69;20596;-75
2024/03/12 02:12:44;;;;;;;2.65;1.20;;;;;;;7.25;72.08;92209.72;2067878;69;20152;-75
2024/03/12 02:15:10;;;;;;;1.48;1.00;;;;;;;7.06;71.46;92209.88;2067825;69;20550;-75
2024/03/12 02:17:36;;;;;;;3.28;1.15;;;;;;;6.47;75.12;92217.16;2071257;69;20221;-74
2024/03/12 02:20:02;;;;;;;1.02;0.93;;;;;;;6.60;75.53;92197.06;2067792;69;20148;-74
2024/03/12 02:22:30;;;;;;;2.40;1.20;;;;;;;6.39;75.91;92205.41;2071042;69;20144;-74
2024/03/12 02:24:56;;;;;;;3.38;1.20;;;;;;;6.85;74.03;92205.72;2071244;69;20155;-74
2024/03/12 02:27:21;;;;;;;1.40;0.93;;;;;;;6.91;73.23;92202.59;2070839;69;20160;-73
2024/03/12 02:29:47;;;;;;;1.48;1.05;;;;;;;6.97;73.06;92205.81;2067910;69;20198;-73
2024/03/12 02:32:13;;;;;;;1.30;0.85;;;;;;;7.05;72.57;92208.38;2070964;69;20184;-74
2024/03/12 02:34:39;;;;;;;2.50;0.95;;;;;;;6.79;73.24;92202.53;2071309;69;20148;-73
2024/03/12 02:37:05;;;;;;;2.53;0.70;;;;;;;7.00;72.31;92212.97;2071283;69;20207;-74
2024/03/12 02:39:30;;;;;;;1.85;1.02;;;;;;;6.69;73.69;92217.88;2067322;69;20149;-73
2024/03/12 02:41:58;;;;;;;2.22;1.10;;;;;;;6.92;72.91;92209.66;2067767;69;20144;-73
2024/03/12 02:44:23;;;;;;;2.35;0.90;;;;;;;6.96;72.45;92211.97;2067666;69;20597;-74
2024/03/12 02:46:51;;;;;;;1.77;0.95;;;;;;;6.91;72.89;92215.84;2067636;69;20163;-74
2024/03/12 02:49:18;;;;;;;3.85;0.90;;;;;;;6.83;73.26;92219.59;2067904;69;20132;-74
2024/03/12 02:51:47;;;;;;;1.90;1.00;;;;;;;6.84;72.48;92214.72;2068329;69;20148;-75
2024/03/12 02:54:13;;;;;;;1.15;1.00;;;;;;;6.85;72.91;92221.78;2067988;69;20170;-74
2024/03/12 02:56:39;;;;;;;1.92;0.90;;;;;;;6.86;71.84;92206.44;2068337;69;20140;-74
2024/03/12 02:59:04;;;;;;;1.55;1.00;;;;;;;6.87;72.12;92219.88;2068629;69;20489;-74
2024/03/12 03:01:30;;;;;;;3.08;0.93;;;;;;;6.85;72.18;92228.09;2068476;69;20238;-74
2024/03/12 03:03:57;;;;;;;3.92;1.10;;;;;;;6.86;71.83;92223.25;2068380;69;20148;-75
2024/03/12 03:06:26;;;;;;;3.45;1.20;;;;;;;6.91;71.49;92227.03;2068379;69;20596;-74
2024/03/12 03:08:51;;;;;;;3.00;1.15;;;;;;;7.03;71.49;92241.84;2068418;69;20335;-74
2024/03/12 03:11:17;;;;;;;1.80;1.63;;;;;;;6.94;71.87;92242.63;2068355;69;20570;-74
2024/03/12 03:13:43;;;;;;;1.60;1.30;;;;;;;7.01;72.48;92238.91;2068082;69;20191;-73
2024/03/12 03:16:10;;;;;;;2.30;0.90;;;;;;;7.04;72.78;92248.91;2067817;69;20187;-74
2024/03/12 03:18:37;;;;;;;2.08;0.95;;;;;;;7.04;72.66;92240.50;2068229;69;20165;-74
2024/03/12 03:21:03;;;;;;;2.38;1.10;;;;;;;7.13;71.31;92243.25;2068054;69;20178;-74
2024/03/12 03:23:28;;;;;;;1.10;1.00;;;;;;;6.88;73.15;92243.72;2068539;69;20153;-73
2024/03/12 03:25:54;;;;;;;1.63;1.10;;;;;;;6.98;72.21;92242.91;2068146;69;20149;-74
2024/03/12 03:28:19;;;;;;;2.15;1.10;;;;;;;7.05;72.31;92242.69;2068123;69;20520;-74
2024/03/12 03:30:46;;;;;;;1.83;1.10;;;;;;;7.12;71.79;92238.97;2068293;69;20145;-74
2024/03/12 03:33:11;;;;;;;1.65;1.10;;;;;;;7.15;71.92;92248.25;2068327;69;20163;-74
2024/03/12 03:35:37;;;;;;;1.40;0.95;;;;;;;6.88;72.26;92220.59;2068251;69;20145;-74
2024/03/12 03:38:05;;;;;;;3.03;0.90;;;;;;;7.14;71.40;92255.16;2067913;69;20687;-75
2024/03/12 03:40:33;;;;;;;1.60;0.95;;;;;;;7.27;70.59;92257.44;2071599;69;20155;-74
2024/03/12 03:42:59;;;;;;;1.67;1.00;;;;;;;7.20;71.20;92254.84;2071607;69;20160;-75
2024/03/12 03:45:25;;;;;;;3.10;1.00;;;;;;;6.74;73.41;92265.13;2071705;69;20148;-74
2024/03/12 03:47:51;;;;;;;5.60;1.20;;;;;;;6.45;75.23;92256.13;2071608;69;20227;-75
2024/03/12 03:50:17;;;;;;;2.22;1.20;;;;;;;6.35;75.33;92259.69;2071698;69;20217;-74
2024/03/12 03:56:30;;;;;;;2.25;1.20;;;;;;;6.67;75.23;92282.81;2071548;69;20148;-74
2024/03/12 03:59:00;;;;;;;3.15;1.15;;;;;;;6.87;73.11;92289.06;2071566;69;20153;-74
2024/03/12 04:01:30;;;;;;;2.30;1.30;;;;;;;6.79;74.35;92288.53;2071707;69;20128;-73
2024/03/12 04:03:57;;;;;;;1.90;1.50;;;;;;;7.00;73.71;92299.75;2071295;69;20161;-73
2024/03/12 04:06:23;;;;;;;2.88;1.33;;;;;;;7.01;73.68;92290.03;2071712;69;20152;-74
2024/03/12 04:08:50;;;;;;;3.72;1.75;;;;;;;7.07;73.54;92303.69;2071471;69;20144;-73
2024/03/12 04:11:20;;;;;;;3.58;1.70;;;;;;;7.09;73.32;92312.22;2071580;69;20655;-74
2024/03/12 04:13:47;;;;;;;2.63;1.73;;;;;;;7.14;72.83;92316.75;2071787;69;20152;-74
2024/03/12 04:16:13;;;;;;;4.20;1.80;;;;;;;7.17;73.23;92320.44;2071270;69;20243;-75
2024/03/12 04:18:38;;;;;;;3.47;1.50;;;;;;;7.16;73.30;92319.69;2071570;69;20156;-75
2024/03/12 04:24:52;;;;;;;2.45;1.48;;;;;;;7.12;73.55;92322.22;2071846;69;20232;-75
2024/03/12 04:27:18;;;;;;;2.47;1.30;;;;;;;7.19;74.00;92326.88;2071927;69;20504;-75
2024/03/12 04:29:43;;;;;;;1.40;1.23;;;;;;;7.21;73.84;92329.09;2068553;69;20175;-75
2024/03/12 04:32:12;;;;;;;2.65;1.30;;;;;;;7.34;73.44;92342.59;2071539;69;20150;-75
2024/03/12 04:34:37;;;;;;;2.55;1.25;;;;;;;7.23;74.59;92334.81;2071592;69;20136;-75
2024/03/12 04:37:07;;;;;;;3.83;1.65;;;;;;;7.10;75.32;92339.63;2071674;69;20626;-75
2024/03/12 04:39:33;;;;;;;2.47;1.88;;;;;;;7.20;74.14;92347.25;2068321;69;20191;-75
2024/03/12 04:42:06;;;;;;;3.20;2.17;;;;;;;7.11;75.75;92343.88;2071669;69;20143;-75
2024/03/12 04:44:32;;;;;;;1.85;1.40;;;;;;;7.23;75.56;92352.34;2071485;69;20159;-75
2024/03/12 04:46:58;;;;;;;2.15;1.30;;;;;;;7.19;74.83;92343.69;2071422;69;20152;-75
2024/03/12 04:49:25;;;;;;;1.50;0.98;;;;;;;7.27;74.73;92354.69;2071614;69;20580;-75
2024/03/12 04:51:51;;;;;;;1.50;0.90;;;;;;;7.23;74.72;92357.94;2071338;69;20153;-75
2024/03/12 04:54:20;;;;;;;3.95;1.20;;;;;;;7.13;75.14;92349.59;2071533;69;20592;-74
2024/03/12 04:56:46;;;;;;;1.50;0.98;;;;;;;7.13;74.78;92349.59;2071550;69;20145;-74
2024/03/12 04:59:14;;;;;;;1.10;1.00;;;;;;;7.15;74.30;92351.81;2071588;69;20147;-75
2024/03/12 05:01:45;;;;;;;4.47;1.10;;;;;;;7.07;75.13;92354.81;2071509;69;20148;-75
2024/03/12 05:04:15;;;;;;;2.35;1.10;;;;;;;7.07;74.96;92359.69;2071632;69;20176;-75
2024/03/12 05:06:41;;;;;;;2.25;0.90;;;;;;;7.05;74.02;92356.72;2068064;69;20148;-75
2024/03/12 05:09:06;;;;;;;1.92;1.08;;;;;;;6.99;74.70;92357.06;2071494;69;20593;-75
2024/03/12 05:11:33;;;;;;;1.30;0.80;;;;;;;7.00;74.54;92361.31;2071538;69;20156;-75
2024/03/12 05:13:59;;;;;;;1.05;0.90;;;;;;;7.06;73.42;92363.81;2071601;69;20136;-75
2024/03/12 05:16:28;;;;;;;3.05;1.80;;;;;;;7.00;74.91;92366.91;2071642;69;20148;-75
2024/03/12 05:18:54;;;;;;;2.85;1.77;;;;;;;6.95;75.09;92370.75;2071459;69;20243;-75
2024/03/12 05:25:42;;;;;;;1.10;1.00;;;;;;;6.94;74.20;92380.50;2071558;69;20536;-75
2024/03/12 05:28:04;;;;;;;1.40;1.10;;;;;;;6.99;75.28;92384.31;2070718;69;20148;-75
2024/03/12 05:30:30;;;;;;;3.75;1.48;;;;;;;6.93;75.36;92381.09;2071463;69;20268;-75
2024/03/12 05:32:56;;;;;;;2.50;1.45;;;;;;;6.87;75.38;92390.53;2071415;69;20128;-75
2024/03/12 05:35:22;;;;;;;2.22;1.30;;;;;;;6.87;75.69;92384.94;2071561;69;20584;-75
2024/03/12 05:38:01;;;;;;;2.28;1.38;;;;;;;6.93;74.96;92389.50;2071508;69;20148;-75
2024/03/12 05:40:43;;;;;;;2.83;1.40;;;;;;;6.81;75.30;92386.56;2071673;69;20155;-75
2024/03/12 05:48:39;;;;;;;2.65;1.45;;;;;;;6.85;75.05;92400.84;2071583;69;20148;-75
2024/03/12 05:51:07;;;;;;;2.55;1.70;;;;;;;6.90;74.48;92401.88;2071475;69;20554;-75
2024/03/12 05:53:38;;;;;;;3.33;1.90;;;;;;;6.87;74.89;92398.94;2068064;69;20175;-75
2024/03/12 05:56:11;;;;;;;3.45;1.80;;;;;;;6.76;75.21;92401.63;2071639;69;20243;-74
2024/03/12 05:58:38;;;;;;;4.82;1.70;;;;;;;6.80;76.13;92405.44;2071786;69;20148;-74
2024/03/12 06:01:05;;;;;;;2.55;1.30;;;;;;;6.90;75.21;92407.47;2071503;69;20214;-74
2024/03/12 06:03:36;;;;;;;2.17;1.10;;;;;;;6.89;74.80;92403.94;2071316;69;20148;-74
2024/03/12 06:06:04;;;;;;;3.30;1.63;;;;;;;6.74;75.17;92407.09;2071506;69;20687;-75
2024/03/12 06:08:33;;;;;;;3.38;2.10;;;;;;;6.77;75.75;92414.28;2071435;69;20174;-75
2024/03/12 06:10:58;;;;;;;3.38;2.22;;;;;;;6.87;75.53;92418.53;2071580;69;20619;-75
2024/03/12 06:13:31;;;;;;;3.58;1.88;;;;;;;6.94;74.89;92416.88;2071648;69;20630;-75
2024/03/12 06:15:57;;;;;;;4.30;2.13;;;;;;;6.93;74.43;92421.00;2071386;69;20639;-75
2024/03/12 06:18:23;;;;;;;3.85;2.35;;;;;;;6.91;75.50;92432.03;2071587;69;20264;-75
2024/03/12 06:20:50;;;;;;;10.18;4.18;;;;;;;6.87;75.95;92429.72;2071878;69;20172;-74
2024/03/12 06:23:18;;;;;;;11.52;6.45;;;;;;;7.01;75.75;92437.59;2071940;69;20156;-74
2024/03/12 06:25:44;;;;;;;11.60;7.53;;;;;;;7.09;73.14;92432.56;2071815;69;20264;-73
2024/03/12 06:28:11;;;;;;;10.68;7.55;;;;;;;6.96;75.41;92436.59;2071950;69;20149;-74
2024/03/12 06:30:42;;;;;;;10.85;6.90;;;;;;;7.07;75.33;92435.97;2071914;69;20523;-74
2024/03/12 06:33:09;;;;;;;8.80;5.53;;;;;;;7.10;75.86;92445.22;2068534;69;20148;-74
2024/03/12 06:35:35;;;;;;;8.57;6.00;;;;;;;7.12;75.59;92439.78;2071987;69;20201;-72
2024/03/12 06:38:05;;;;;;;9.30;6.88;;;;;;;7.24;75.53;92449.03;2071750;69;20213;-73
2024/03/12 06:40:31;;;;;;;7.13;5.60;;;;;;;7.22;75.95;92459.34;2071997;69;20270;-73
2024/03/12 06:42:59;;;;;;;7.07;5.15;;;;;;;7.31;74.97;92452.97;2072092;69;20561;-75
2024/03/12 06:45:28;;;;;;;11.00;5.40;;;;;;;7.38;75.41;92463.28;2071934;69;20152;-73
2024/03/12 06:48:00;;;;;;;7.85;5.13;;;;;;;7.50;74.56;92466.88;2071853;69;20144;-74
2024/03/12 06:50:25;;;;;;;8.43;5.10;;;;;;;7.63;74.27;92460.78;2072034;69;20235;-75
2024/03/12 06:52:55;;;;;;;6.15;4.95;;;;;;;7.68;73.99;92464.59;2072057;69;20144;-74
2024/03/12 06:55:24;;;;;;;5.85;3.72;;;;;;;7.07;75.92;92460.44;2072120;69;20144;-76
2024/03/12 06:58:04;;;;;;;9.30;5.38;;;;;;;6.69;78.48;92461.25;2071946;69;20169;-75
2024/03/12 07:00:44;;;;;;;13.93;5.35;;;;;;;6.92;78.35;92464.31;2072098;69;20610;-75
2024/03/12 07:03:10;;;;;;;8.45;4.88;;;;;;;7.35;75.78;92470.06;2071881;69;20183;-75
2024/03/12 07:05:37;;;;;;;14.88;7.25;;;;;;;7.53;75.56;92476.19;2071931;69;20227;-74
2024/03/12 07:08:05;;;;;;;8.75;5.68;;;;;;;7.66;74.63;92470.06;2071952;69;20247;-74
2024/03/12 07:10:36;;;;;;;12.30;6.20;;;;;;;7.46;75.57;92477.81;2071951;69;20689;-74
2024/03/12 07:13:04;;;;;;;11.23;7.28;;;;;;;7.54;74.68;92489.56;2072059;69;20148;-75
2024/03/12 07:15:33;;;;;;;9.82;6.80;;;;;;;7.78;73.86;92484.16;2071916;69;20144;-74
2024/03/12 07:17:59;;;;;;;10.93;5.82;;;;;;;7.87;74.23;92486.16;2071800;69;20188;-74
2024/03/12 07:20:27;;;;;;;7.10;5.30;;;;;;;7.91;74.52;92492.03;2072065;69;20286;-74
2024/03/12 07:22:54;;;;;;;5.97;3.83;;;;;;;7.11;77.05;92495.03;2072021;69;20200;-74
2024/03/12 07:25:20;;;;;;;17.17;9.98;;;;;;;7.19;76.24;92475.25;2072043;69;20220;-76
2024/03/12 07:27:46;;;;;;;24.80;12.93;;;;;;;7.79;74.21;92503.19;2072060;69;20144;-75
2024/03/12 07:30:13;;;;;;;14.18;8.30;;;;;;;8.03;72.35;92503.34;2071746;69;20145;-75
2024/03/12 07:32:39;;;;;;;10.07;6.43;;;;;;;8.06;73.44;92508.50;2071842;69;20144;-74
2024/03/12 07:35:06;;;;;;;9.80;6.10;;;;;;;8.08;73.43;92513.50;2071856;69;20163;-74
2024/03/12 07:37:39;;;;;;;9.45;5.78;;;;;;;8.10;73.55;92511.53;2071874;69;20493;-74
2024/03/12 07:40:11;;;;;;;8.73;5.82;;;;;;;8.17;73.17;92509.88;2071893;69;20140;-75
2024/03/12 07:42:38;;;;;;;8.77;5.55;;;;;;;8.12;73.74;92505.34;2071891;69;20612;-76
2024/03/12 07:45:05;;;;;;;9.35;5.90;;;;;;;8.18;72.91;92516.22;2068448;69;20521;-75
2024/03/12 07:47:32;;;;;;;9.77;6.35;;;;;;;8.17;73.42;92511.97;2071818;69;20153;-73
2024/03/12 07:49:58;;;;;;;10.48;6.07;;;;;;;8.24;72.36;92516.63;2072002;69;20528;-76
2024/03/12 07:52:24;;;;;;;12.50;7.22;;;;;;;8.28;73.28;92514.81;2071985;69;20156;-74
2024/03/12 07:54:50;;;;;;;10.75;6.70;;;;;;;8.38;72.24;92520.38;2071826;69;20504;-75
2024/03/12 07:57:18;;;;;;;10.18;6.10;;;;;;;8.48;71.51;92528.75;2071848;69;20239;-74
2024/03/12 07:59:43;;;;;;;5.40;3.60;;;;;;;8.18;72.85;92527.44;2071888;69;20237;-75
2024/03/12 08:02:12;;;;;;;5.40;3.33;;;;;;;8.40;72.53;92528.94;2071806;69;20137;-74
2024/03/12 08:04:43;;;;;;;5.85;4.28;;;;;;;8.23;73.29;92520.75;2071814;69;20210;-75
2024/03/12 08:07:13;;;;;;;6.55;3.70;;;;;;;8.42;72.58;92531.16;2071832;69;20152;-75
2024/03/12 08:09:39;;;;;;;6.10;4.40;;;;;;;8.55;72.77;92534.16;2068539;69;20155;-74
2024/03/12 08:12:07;;;;;;;8.23;4.43;;;;;;;8.52;72.10;92543.78;2071482;69;20155;-74
2024/03/12 08:14:36;;;;;;;6.70;4.82;;;;;;;8.00;74.43;92524.88;2065791;69;20219;-73
2024/03/12 08:17:04;;;;;;;9.00;4.60;;;;;;;8.47;73.66;92530.81;2071633;69;20547;-77
2024/03/12 08:19:30;;;;;;;5.28;3.33;;;;;;;8.63;72.67;92542.38;2071691;69;20152;-76
2024/03/12 08:21:56;;;;;;;5.82;3.83;;;;;;;8.83;71.87;92543.66;2071788;69;20596;-75
2024/03/12 08:24:22;;;;;;;6.43;4.57;;;;;;;8.94;71.99;92542.25;2071917;69;20143;-74
2024/03/12 08:26:48;;;;;;;11.23;4.60;;;;;;;8.92;72.46;92542.13;2071734;69;20143;-75
2024/03/12 08:29:16;;;;;;;9.73;4.45;;;;;;;9.06;71.89;92543.03;2071707;69;20535;-75
2024/03/12 08:31:42;;;;;;;6.13;4.25;;;;;;;9.52;72.85;92544.47;2071682;69;20152;-76
2024/03/12 08:34:17;;;;;;;9.00;4.85;;;;;;;9.50;73.55;92538.00;2068408;69;20206;-78
2024/03/12 08:36:43;;;;;;;10.57;5.45;;;;;;;9.76;71.36;92539.66;2068602;69;20168;-76
2024/03/12 08:39:12;;;;;;;6.93;4.95;;;;;;;9.90;70.28;92526.44;2071638;69;20160;-76
2024/03/12 08:41:41;;;;;;;11.77;6.70;;;;;;;10.12;71.95;92531.91;2071702;69;20627;-75
2024/03/12 08:44:13;;;;;;;6.55;4.38;;;;;;;10.14;70.27;92543.31;2071555;69;20132;-74
2024/03/12 08:46:39;;;;;;;5.53;4.07;;;;;;;10.72;68.54;92536.88;2071485;69;20218;-75
2024/03/12 08:49:05;;;;;;;4.00;2.97;;;;;;;10.67;67.11;92535.16;2071724;69;20156;-76
2024/03/12 08:51:36;;;;;;;4.40;3.33;;;;;;;10.65;65.98;92530.16;2071613;69;20151;-75
2024/03/12 08:54:11;;;;;;;6.72;4.03;;;;;;;10.93;65.73;92533.13;2071631;69;20235;-75
2024/03/12 08:56:36;;;;;;;6.35;4.30;;;;;;;11.41;64.84;92523.09;2071409;69;20167;-75
2024/03/12 08:59:04;;;;;;;6.50;4.10;;;;;;;11.35;64.49;92529.13;2071691;69;20136;-75
2024/03/12 09:01:31;;;;;;;10.68;5.88;;;;;;;11.54;63.85;92518.84;2071687;69;20176;-75
2024/03/12 09:03:57;;;;;;;6.90;4.20;;;;;;;11.44;65.16;92519.75;2071228;69;20134;-75
2024/03/12 09:06:23;;;;;;;5.43;3.78;;;;;;;11.12;62.92;92524.34;2071527;69;20172;-75
2024/03/12 09:12:36;;;;;;;2.65;1.52;;;;;;;11.69;60.64;92523.91;2071579;69;20205;-77
2024/03/12 09:15:02;;;;;;;2.40;1.40;;;;;;;11.51;59.73;92486.28;2071506;69;20604;-76
2024/03/12 09:17:28;;;;;;;4.45;2.00;;;;;;;11.42;60.87;92513.28;2068105;69;20156;-77
2024/03/12 09:19:54;;;;;;;4.20;2.80;;;;;;;11.57;61.09;92517.59;2068210;69;20524;-76
2024/03/12 09:22:20;;;;;;;7.32;3.17;;;;;;;11.73;62.07;92515.69;2071590;69;20200;-77
2024/03/12 09:24:46;;;;;;;2.58;1.80;;;;;;;11.73;60.90;92523.38;2071564;69;20509;-77
2024/03/12 09:27:11;;;;;;;3.28;1.90;;;;;;;12.03;59.63;92525.03;2071218;69;20603;-78
2024/03/12 09:29:39;;;;;;;1.45;1.35;;;;;;;11.93;58.81;92525.22;2071416;69;20672;-76
2024/03/12 09:32:05;;;;;;;3.50;1.50;;;;;;;11.57;57.70;92521.16;2071555;69;20156;-77
2024/03/12 09:34:33;;;;;;;2.95;1.58;;;;;;;11.58;58.00;92521.88;2071526;69;20136;-76
2024/03/12 09:37:04;;;;;;;3.80;2.10;;;;;;;11.47;59.86;92517.06;2071497;69;20519;-78
2024/03/12 09:39:30;;;;;;;3.28;1.88;;;;;;;11.51;59.79;92517.28;2071411;69;20140;-79
2024/03/12 09:41:57;;;;;;;3.85;2.00;;;;;;;11.78;58.93;92516.63;2071567;69;20604;-78
2024/03/12 09:44:23;;;;;;;5.07;1.75;;;;;;;12.02;59.63;92505.91;2071478;69;20527;-78
2024/03/12 09:46:49;;;;;;;3.00;2.20;;;;;;;12.02;59.95;92501.00;2071390;69;20688;-77
2024/03/12 09:49:19;;;;;;;3.83;2.40;;;;;;;12.07;61.15;92502.66;2071627;69;20206;-77
2024/03/12 09:51:44;;;;;;;2.70;1.77;;;;;;;13.07;59.78;92504.13;2071589;69;20194;-77
2024/03/12 09:54:11;;;;;;;3.20;1.90;;;;;;;14.48;56.25;92508.47;2071401;69;20154;-78
2024/03/12 09:56:40;;;;;;;2.22;1.20;;;;;;;14.48;53.20;92514.88;2071562;69;20134;-78
2024/03/12 09:59:08;;;;;;;2.35;1.95;;;;;;;13.65;52.68;92508.28;2071252;69;20231;-78
2024/03/12 10:01:34;;;;;;;2.78;1.50;;;;;;;12.55;52.67;92508.59;2071541;69;20194;-77
2024/03/12 10:04:01;;;;;;;3.85;1.92;;;;;;;12.92;53.89;92499.84;2071568;69;20223;-78
2024/03/12 10:06:28;;;;;;;2.35;1.70;;;;;;;13.33;52.49;92502.56;2068319;69;20170;-78
2024/03/12 10:08:59;;;;;;;2.30;1.60;;;;;;;13.24;51.21;92500.72;2071635;69;20168;-78
2024/03/12 10:11:26;;;;;;;4.40;1.50;;;;;;;12.87;51.01;92495.34;2071533;69;20267;-78
2024/03/12 10:13:56;;;;;;;2.42;1.40;;;;;;;12.60;51.14;92502.56;2071657;69;20141;-77
2024/03/12 10:16:27;;;;;;;2.83;1.90;;;;;;;12.42;53.40;92501.63;2071208;69;20192;-77
2024/03/12 10:19:14;;;;;;;2.83;1.35;;;;;;;11.93;52.39;92494.19;2071384;69;20136;-76
2024/03/12 10:21:41;;;;;;;3.15;1.45;;;;;;;12.11;49.75;92504.97;2071547;69;20145;-75
2024/03/12 10:24:21;;;;;;;2.28;1.40;;;;;;;12.06;51.59;92504.03;2071523;69;20143;-75
2024/03/12 10:26:48;;;;;;;3.00;1.33;;;;;;;11.45;50.35;92512.03;2071474;69;20148;-78
2024/03/12 10:29:18;;;;;;;1.38;0.80;;;;;;;11.05;49.58;92510.56;2071444;69;20151;-78
2024/03/12 10:31:48;;;;;;;1.25;0.95;;;;;;;10.97;50.29;92516.44;2071682;69;20235;-77
2024/03/12 10:34:17;;;;;;;1.52;0.90;;;;;;;11.35;49.96;92511.47;2071604;69;20167;-77
2024/03/12 10:36:44;;;;;;;4.07;0.95;;;;;;;11.31;49.07;92520.44;2065333;69;20401;-77
2024/03/12 10:39:14;;;;;;;1.15;0.70;;;;;;;11.50;48.32;92521.44;2071397;69;20148;-77
2024/03/12 10:41:43;;;;;;;1.10;0.85;;;;;;;11.71;49.42;92521.19;2071391;69;20159;-77
2024/03/12 10:44:12;;;;;;;1.42;0.90;;;;;;;12.17;49.25;92525.03;2071331;69;20152;-77
2024/03/12 10:46:40;;;;;;;0.60;0.60;;;;;;;11.72;45.98;92517.00;2070956;69;20232;-77
2024/03/12 10:49:12;;;;;;;0.70;0.60;;;;;;;11.84;46.12;92525.44;2071401;69;20144;-78
2024/03/12 10:51:43;;;;;;;3.83;1.10;;;;;;;12.21;47.06;92523.16;2071336;69;20161;-78
2024/03/12 10:54:15;;;;;;;1.50;1.00;;;;;;;11.76;48.99;92522.88;2071387;69;20148;-78
2024/03/12 10:56:41;;;;;;;1.10;0.90;;;;;;;12.13;48.17;92519.19;2071389;69;20140;-78
2024/03/12 10:59:10;;;;;;;2.20;1.10;;;;;;;12.53;48.49;92528.28;2071500;69;20131;-78
2024/03/12 11:01:36;;;;;;;1.63;1.00;;;;;;;12.89;48.22;92532.19;2071201;69;20187;-78
2024/03/12 11:04:05;;;;;;;1.50;1.10;;;;;;;12.98;48.15;92531.25;2071350;69;20144;-78
2024/03/12 11:06:35;;;;;;;3.05;1.20;;;;;;;12.86;47.64;92539.84;2071857;69;20140;-78
2024/03/12 11:09:01;;;;;;;3.08;1.42;;;;;;;12.57;47.96;92534.88;2072015;69;20336;-78
2024/03/12 11:11:34;;;;;;;2.13;1.08;;;;;;;12.75;46.75;92539.97;2071786;69;20217;-78
2024/03/12 11:14:04;;;;;;;1.30;1.10;;;;;;;12.51;46.80;92543.03;2071834;69;20129;-78
2024/03/12 11:16:36;;;;;;;1.50;1.00;;;;;;;12.60;46.95;92544.91;2071853;69;20151;-78
2024/03/12 11:19:24;;;;;;;1.83;1.10;;;;;;;12.31;46.97;92537.06;2071796;69;20251;-78
2024/03/12 11:21:59;;;;;;;3.35;1.00;;;;;;;12.47;46.58;92540.00;2071816;69;20201;-78
2024/03/12 11:24:32;;;;;;;2.50;1.10;;;;;;;12.61;45.24;92542.81;2071917;69;20184;-78
2024/03/12 11:27:00;;;;;;;1.30;0.82;;;;;;;12.38;45.45;92538.84;2071907;69;20239;-78
2024/03/12 11:30:03;;;;;;;1.92;1.10;;;;;;;12.93;45.74;92550.09;2068557;69;20156;-78
2024/03/12 11:32:59;;;;;;;;;;;;;;;13.23;45.37;92548.03;2071799;69;20160;-78
2024/03/12 11:35:25;;;;;;;4.55;1.80;;;;;;;12.77;43.29;92543.63;2068110;69;20061;-78
2024/03/12 11:37:57;;;;;;;1.60;1.00;;;;;;;12.58;42.34;92539.16;2071732;69;20237;-78
2024/03/12 11:40:28;;;;;;;1.08;0.70;;;;;;;12.78;40.87;92539.41;2071924;69;20270;-78
2024/03/12 11:42:57;;;;;;;3.25;0.60;;;;;;;14.26;40.45;92525.19;2071807;69;20747;-78
2024/03/12 11:45:48;;;;;;;1.45;0.90;;;;;;;14.89;39.44;92527.94;2071740;69;20136;-78
2024/03/12 11:48:22;;;;;;;1.05;0.60;;;;;;;14.41;37.81;92530.09;2071658;69;20166;-77
2024/03/12 11:50:52;;;;;;;1.95;0.60;;;;;;;14.16;37.61;92524.75;2071709;69;20152;-77
2024/03/12 11:53:28;;;;;;;1.88;0.60;;;;;;;13.82;38.05;92523.91;2071778;69;20150;-77
2024/03/12 11:56:05;;;;;;;1.10;0.47;;;;;;;13.81;37.63;92522.44;2072032;69;20576;-77
2024/03/12 11:58:54;;;;;;;0.50;0.50;;;;;;;13.13;38.29;92529.81;2071707;69;20155;-77
2024/03/12 12:01:23;;;;;;;0.50;0.43;;;;;;;13.11;38.98;92526.91;2071789;69;20151;-77
2024/03/12 12:03:58;;;;;;;0.77;0.60;;;;;;;13.18;40.02;92523.00;2071661;69;20139;-77
2024/03/12 12:06:24;;;;;;;2.70;0.50;;;;;;;13.06;39.10;92514.69;2071750;69;20198;-77